Time;durP1;ratioP1;P1;durP2;ratioP2;P2;SDS_P1;SDS_P2;PMS_P1;PMS_P2;Temp;Humidity;BMP_temperature;BMP_pressure;BME280_temperature;BME280_humidity;BME280_pressure;Samples;Min_cycle;Max_cycle;Signal;HPM_P1;HPM_P2
2021/04/04 00:00:38;;;;;;;26.85;5.97;;;;;;;5.14;82.11;102192.06;4984277;28;20105;-78
2021/04/04 00:03:04;;;;;;;24.80;4.43;;;;;;;5.09;81.98;102193.94;4987824;28;20061;-78
2021/04/04 00:05:30;;;;;;;22.17;5.05;;;;;;;5.05;82.04;102188.69;4986045;28;20737;-77
2021/04/04 00:07:55;;;;;;;27.98;5.60;;;;;;;5.01;82.10;102184.31;4986302;28;20034;-79
2021/04/04 00:10:21;;;;;;;21.92;5.70;;;;;;;4.96;82.48;102188.84;4982629;28;20038;-78
2021/04/04 00:12:46;;;;;;;24.60;4.43;;;;;;;4.92;82.24;102188.03;4986448;28;20522;-79
2021/04/04 00:15:17;;;;;;;29.98;5.05;;;;;;;4.86;82.37;102181.03;4994134;28;20047;-78
2021/04/04 00:17:42;;;;;;;24.40;4.43;;;;;;;4.80;82.67;102178.50;4984975;28;20042;-79
2021/04/04 00:20:14;;;;;;;19.50;4.22;;;;;;;4.81;82.54;102177.56;4982317;28;20081;-78
2021/04/04 00:22:40;;;;;;;29.50;4.88;;;;;;;4.79;82.71;102181.16;4987598;28;20536;-77
2021/04/04 00:25:07;;;;;;;31.38;4.55;;;;;;;4.81;82.40;102190.88;4978425;28;20092;-78
2021/04/04 00:27:33;;;;;;;23.38;4.68;;;;;;;4.78;82.34;102190.06;4980489;28;20326;-77
2021/04/04 00:29:59;;;;;;;25.92;4.22;;;;;;;4.75;82.35;102185.66;4983988;28;20656;-77
2021/04/04 00:32:24;;;;;;;22.98;4.45;;;;;;;4.73;82.39;102183.94;4985961;28;20038;-78
2021/04/04 00:34:50;;;;;;;31.00;5.00;;;;;;;4.73;82.43;102182.16;4989576;28;20165;-78
2021/04/04 00:37:15;;;;;;;22.98;5.80;;;;;;;4.71;82.61;102183.94;4981295;28;20110;-77
2021/04/04 00:39:41;;;;;;;29.92;4.72;;;;;;;4.68;82.69;102184.03;4987512;28;20092;-78
2021/04/04 00:42:06;;;;;;;15.35;4.30;;;;;;;4.68;82.60;102176.03;5017159;28;20030;-77
2021/04/04 00:44:32;;;;;;;29.38;4.35;;;;;;;4.68;82.66;102178.72;4965049;28;20070;-79
2021/04/04 00:46:57;;;;;;;22.30;5.22;;;;;;;4.67;82.45;102179.59;4986701;28;20030;-77
2021/04/04 00:49:23;;;;;;;26.38;4.85;;;;;;;4.65;82.50;102184.06;4983479;28;20451;-77
2021/04/04 00:51:48;;;;;;;27.50;5.07;;;;;;;4.63;82.63;102180.53;4987530;28;20034;-77
2021/04/04 00:54:18;;;;;;;36.95;6.50;;;;;;;4.61;82.50;102179.72;5000570;28;20086;-78
2021/04/04 00:56:44;;;;;;;25.08;5.55;;;;;;;4.61;82.38;102176.16;5015005;28;20100;-78
2021/04/04 00:59:12;;;;;;;24.38;5.25;;;;;;;4.56;82.80;102176.25;4985886;28;20038;-77
2021/04/04 01:01:37;;;;;;;23.30;4.80;;;;;;;4.55;82.84;102177.16;5001882;28;20033;-77
2021/04/04 01:04:03;;;;;;;27.77;5.32;;;;;;;4.53;83.07;102170.97;4982904;28;20515;-76
2021/04/04 01:06:28;;;;;;;27.30;4.90;;;;;;;4.48;83.24;102175.47;4961701;28;20188;-76
2021/04/04 01:08:54;;;;;;;22.98;4.68;;;;;;;4.41;83.52;102180.03;4999269;28;20042;-76
2021/04/04 01:11:27;;;;;;;23.77;5.47;;;;;;;4.41;83.54;102173.81;4984963;28;20041;-76
2021/04/04 01:14:01;;;;;;;25.92;5.35;;;;;;;4.37;83.76;102174.78;4967941;28;20121;-76
2021/04/04 01:16:36;;;;;;;20.17;4.68;;;;;;;4.38;83.77;102173.88;4965302;28;20042;-75
2021/04/04 01:19:11;;;;;;;19.45;5.03;;;;;;;4.37;83.73;102172.13;5013501;28;20035;-77
2021/04/04 01:21:46;;;;;;;17.10;4.88;;;;;;;4.32;84.01;102177.47;4986345;28;20030;-76
2021/04/04 01:24:53;;;;;;;25.67;5.55;;;;;;;4.28;84.46;102177.56;4980426;28;20058;-77
2021/04/04 01:27:40;;;;;;;35.05;5.22;;;;;;;4.26;84.86;102174.06;4977678;28;20438;-77
2021/04/04 01:30:07;;;;;;;30.65;6.88;;;;;;;4.24;85.26;102175.88;5004008;28;20096;-77
2021/04/04 01:32:35;;;;;;;24.15;5.03;;;;;;;4.25;85.74;102182.94;4986736;28;20291;-76
2021/04/04 01:35:06;;;;;;;27.35;5.50;;;;;;;4.26;86.04;102174.91;4983215;28;20049;-76
2021/04/04 01:37:32;;;;;;;22.38;5.15;;;;;;;4.30;86.33;102171.34;4981331;28;20065;-76
2021/04/04 01:40:03;;;;;;;31.35;7.60;;;;;;;4.30;86.68;102175.78;4984758;28;20038;-76
2021/04/04 01:42:29;;;;;;;23.05;5.10;;;;;;;4.37;86.58;102178.31;4978875;28;20034;-76
2021/04/04 01:44:56;;;;;;;34.63;6.03;;;;;;;4.40;86.65;102172.06;4982710;28;20518;-77
2021/04/04 01:47:22;;;;;;;28.08;5.50;;;;;;;4.51;86.52;102175.41;4991758;28;20101;-76
2021/04/04 01:49:51;;;;;;;27.60;6.00;;;;;;;4.48;86.97;102178.13;4977806;28;20034;-76
2021/04/04 01:52:17;;;;;;;32.92;5.82;;;;;;;4.52;87.30;102182.50;4989152;28;20038;-76
2021/04/04 01:54:44;;;;;;;28.63;6.60;;;;;;;4.56;87.75;102183.34;4978084;28;20042;-76
2021/04/04 01:57:11;;;;;;;28.33;5.72;;;;;;;4.54;87.63;102183.38;5012022;28;20065;-76
2021/04/04 01:59:37;;;;;;;25.95;5.53;;;;;;;4.55;87.79;102174.50;4986821;28;20038;-77
2021/04/04 02:02:04;;;;;;;21.85;5.60;;;;;;;4.55;87.72;102169.16;5012943;28;20049;-76
2021/04/04 02:04:30;;;;;;;31.38;6.35;;;;;;;4.58;87.81;102168.22;4984534;28;20034;-77
2021/04/04 02:06:57;;;;;;;23.30;5.50;;;;;;;4.56;87.62;102165.63;4994487;28;20035;-76
2021/04/04 02:09:24;;;;;;;23.35;5.65;;;;;;;4.58;87.39;102166.44;4990050;28;20062;-76
2021/04/04 02:11:50;;;;;;;23.25;5.72;;;;;;;4.61;87.46;102169.06;4986840;28;20038;-77
2021/04/04 02:14:21;;;;;;;22.02;5.95;;;;;;;4.63;87.61;102169.06;4979402;28;20077;-76
2021/04/04 02:16:49;;;;;;;30.27;6.97;;;;;;;4.65;87.40;102170.75;4964969;28;20034;-76
2021/04/04 02:19:16;;;;;;;20.50;6.80;;;;;;;4.68;87.09;102157.44;4985939;28;20607;-76
2021/04/04 02:21:42;;;;;;;23.05;5.55;;;;;;;4.66;87.41;102151.25;4987723;28;20030;-76
2021/04/04 02:24:09;;;;;;;29.00;7.13;;;;;;;4.67;87.58;102154.78;5014234;28;20389;-77
2021/04/04 02:26:35;;;;;;;25.40;6.05;;;;;;;4.68;87.87;102152.09;4965227;28;20034;-76
2021/04/04 02:29:01;;;;;;;26.80;6.03;;;;;;;4.72;88.08;102161.78;4986622;28;20081;-77
2021/04/04 02:31:31;;;;;;;31.00;6.85;;;;;;;4.70;88.31;102152.94;4999750;28;20053;-76
2021/04/04 02:34:01;;;;;;;31.08;6.13;;;;;;;4.71;88.23;102156.47;4982911;28;20035;-77
2021/04/04 02:36:28;;;;;;;34.55;7.30;;;;;;;4.72;88.32;102150.25;4978996;28;20045;-76
2021/04/04 02:39:00;;;;;;;23.67;6.03;;;;;;;4.74;88.40;102148.47;4974724;28;20395;-76
2021/04/04 02:41:27;;;;;;;22.65;5.88;;;;;;;4.77;88.29;102151.06;5006026;28;20030;-77
2021/04/04 02:43:53;;;;;;;27.75;6.00;;;;;;;4.77;88.71;102146.63;4960655;28;20050;-76
2021/04/04 02:46:21;;;;;;;25.85;6.40;;;;;;;4.80;88.38;102141.25;4979328;28;20045;-77
2021/04/04 02:48:54;;;;;;;32.08;6.00;;;;;;;4.82;88.41;102150.06;4986073;28;20039;-77
2021/04/04 02:51:32;;;;;;;32.72;5.93;;;;;;;4.86;87.96;102142.91;5010509;28;20042;-77
2021/04/04 02:54:00;;;;;;;35.50;6.32;;;;;;;4.84;88.07;102150.91;4968124;28;20038;-76
2021/04/04 02:56:34;;;;;;;28.08;5.68;;;;;;;4.86;88.28;102151.78;4977537;28;20500;-77
2021/04/04 02:59:01;;;;;;;26.85;5.72;;;;;;;4.85;88.39;102142.03;4968398;28;20030;-77
2021/04/04 03:01:32;;;;;;;22.38;6.00;;;;;;;4.87;88.28;102153.53;4983986;28;20031;-77
2021/04/04 03:03:58;;;;;;;27.45;6.18;;;;;;;4.92;87.87;102149.91;4967691;28;20034;-77
2021/04/04 03:06:24;;;;;;;35.63;7.55;;;;;;;4.92;88.02;102155.22;5014606;28;20084;-76
2021/04/04 03:08:53;;;;;;;31.40;6.05;;;;;;;4.96;87.86;102152.47;5012660;28;20096;-77
2021/04/04 03:11:19;;;;;;;28.77;7.05;;;;;;;4.96;87.82;102144.50;4999591;28;20629;-76
2021/04/04 03:13:48;;;;;;;21.73;6.32;;;;;;;4.91;88.02;102143.72;4982524;28;20089;-76
2021/04/04 03:16:16;;;;;;;23.30;5.85;;;;;;;4.92;88.33;102149.91;4982018;28;20516;-77
2021/04/04 03:18:43;;;;;;;20.13;5.38;;;;;;;4.94;88.07;102148.13;4985735;28;20038;-77
2021/04/04 03:21:11;;;;;;;25.30;5.80;;;;;;;4.95;87.92;102150.72;4972235;28;20026;-76
2021/04/04 03:23:39;;;;;;;29.95;5.75;;;;;;;4.95;87.99;102147.19;4986162;28;20041;-76
2021/04/04 03:26:06;;;;;;;20.83;5.65;;;;;;;4.96;87.86;102140.97;4970938;28;20061;-76
2021/04/04 03:28:32;;;;;;;26.27;5.65;;;;;;;4.97;88.02;102142.72;4986266;28;20057;-77
2021/04/04 03:30:58;;;;;;;23.25;5.75;;;;;;;5.00;87.74;102137.34;4986100;28;20045;-76
2021/04/04 03:33:24;;;;;;;32.40;6.00;;;;;;;5.01;87.61;102142.63;5016824;28;20092;-76
2021/04/04 03:35:52;;;;;;;39.30;7.22;;;;;;;4.98;87.76;102140.03;4985041;28;20631;-77
2021/04/04 03:38:20;;;;;;;25.80;5.85;;;;;;;4.98;87.78;102136.50;4970392;28;20035;-76
2021/04/04 03:40:46;;;;;;;22.10;6.00;;;;;;;5.02;87.43;102138.19;4974879;28;20030;-77
2021/04/04 03:43:17;;;;;;;19.52;5.53;;;;;;;5.00;87.54;102138.19;4973554;28;20032;-77
2021/04/04 03:45:43;;;;;;;22.77;6.22;;;;;;;5.02;87.41;102138.19;4988926;28;21235;-77
2021/04/04 03:48:08;;;;;;;35.28;5.85;;;;;;;5.05;87.18;102135.47;4971427;28;20030;-77
2021/04/04 03:50:36;;;;;;;36.22;5.75;;;;;;;5.14;87.12;102140.59;4992627;28;20037;-76
2021/04/04 03:53:02;;;;;;;34.97;6.95;;;;;;;5.14;86.85;102124.63;4975481;28;20060;-76
2021/04/04 03:55:29;;;;;;;28.73;5.68;;;;;;;5.08;87.61;102116.78;4993777;28;20089;-76
2021/04/04 03:57:56;;;;;;;22.10;6.63;;;;;;;5.10;87.61;102122.97;4974663;28;20061;-77
2021/04/04 04:00:25;;;;;;;30.42;6.05;;;;;;;5.03;88.00;102121.31;5017917;28;20128;-76
2021/04/04 04:02:51;;;;;;;29.45;6.45;;;;;;;5.06;87.84;102119.47;4986306;28;20034;-76
2021/04/04 04:05:20;;;;;;;34.55;6.47;;;;;;;5.04;87.81;102117.75;4972270;28;20061;-77
2021/04/04 04:07:47;;;;;;;26.35;5.72;;;;;;;5.09;87.54;102108.75;4971986;28;20044;-76
2021/04/04 04:10:15;;;;;;;27.42;5.55;;;;;;;5.14;86.61;102103.34;4986051;28;20543;-77
2021/04/04 04:12:42;;;;;;;22.90;5.28;;;;;;;5.09;86.66;102094.56;4991535;28;20030;-76
2021/04/04 04:15:10;;;;;;;26.35;5.18;;;;;;;5.06;86.71;102097.31;4986883;28;20034;-76
2021/04/04 04:17:37;;;;;;;23.98;6.40;;;;;;;5.05;86.73;102098.22;4986607;28;20070;-77
2021/04/04 04:20:03;;;;;;;18.13;5.32;;;;;;;5.09;86.64;102094.56;5011901;28;20088;-76
2021/04/04 04:22:30;;;;;;;33.40;7.95;;;;;;;5.16;86.43;102096.22;4988448;28;20045;-76
2021/04/04 04:24:56;;;;;;;27.08;5.13;;;;;;;5.14;86.71;102101.56;5017506;28;20056;-76
2021/04/04 04:27:22;;;;;;;22.20;6.10;;;;;;;5.26;86.87;102098.66;4987547;28;20481;-77
2021/04/04 04:29:50;;;;;;;21.40;5.35;;;;;;;5.20;86.81;102093.44;4986307;28;20050;-76
2021/04/04 04:32:20;;;;;;;24.23;5.28;;;;;;;5.17;86.86;102098.84;4987722;28;20034;-76
2021/04/04 04:34:47;;;;;;;25.42;5.78;;;;;;;5.13;87.08;102090.94;4972690;28;20092;-76
2021/04/04 04:37:13;;;;;;;14.82;4.90;;;;;;;5.12;87.13;102089.22;4969455;28;20034;-77
2021/04/04 04:39:41;;;;;;;28.17;6.03;;;;;;;5.14;86.82;102092.69;5013936;28;20050;-77
2021/04/04 04:42:10;;;;;;;25.38;5.88;;;;;;;5.13;86.58;102083.84;5014644;28;20035;-76
2021/04/04 04:44:38;;;;;;;31.88;5.78;;;;;;;5.09;86.90;102086.59;4968320;28;20041;-76
2021/04/04 04:47:04;;;;;;;19.70;5.20;;;;;;;5.10;86.84;102088.34;4986246;28;20041;-77
2021/04/04 04:49:30;;;;;;;25.30;6.65;;;;;;;5.11;86.65;102076.81;4970682;28;20022;-77
2021/04/04 04:51:55;;;;;;;18.75;5.30;;;;;;;5.11;86.37;102071.47;5012631;28;20381;-77
2021/04/04 04:54:21;;;;;;;21.25;6.18;;;;;;;5.11;86.66;102076.81;4985197;28;20074;-77
2021/04/04 04:56:47;;;;;;;28.00;5.68;;;;;;;5.11;86.58;102082.13;4967871;28;20127;-76
2021/04/04 04:59:14;;;;;;;27.27;5.45;;;;;;;5.13;87.02;102080.28;4994866;28;20521;-77
2021/04/04 05:01:47;;;;;;;29.85;6.13;;;;;;;5.17;87.05;102076.69;4983734;28;20057;-76
2021/04/04 05:04:13;;;;;;;19.95;5.57;;;;;;;5.17;86.98;102076.69;4986303;28;20035;-77
2021/04/04 05:06:41;;;;;;;20.70;4.90;;;;;;;5.29;86.47;102081.75;4982553;28;20058;-77
2021/04/04 05:09:08;;;;;;;20.38;5.22;;;;;;;5.33;86.19;102085.22;5014116;28;20121;-77
2021/04/04 05:11:39;;;;;;;25.23;4.68;;;;;;;5.21;86.35;102089.00;5001854;28;20042;-77
2021/04/04 05:14:04;;;;;;;23.00;4.45;;;;;;;5.26;85.73;102092.44;5014884;28;20035;-77
2021/04/04 05:16:30;;;;;;;19.52;4.78;;;;;;;5.21;85.74;102084.56;5009524;28;20093;-76
2021/04/04 05:18:56;;;;;;;16.77;4.22;;;;;;;5.23;85.85;102092.53;4967114;28;20038;-77
2021/04/04 05:21:25;;;;;;;19.65;4.35;;;;;;;5.35;84.64;102097.59;4980746;28;20038;-76
2021/04/04 05:23:57;;;;;;;14.20;4.05;;;;;;;5.36;84.93;102099.34;4990287;28;20416;-77
2021/04/04 05:26:28;;;;;;;22.02;4.60;;;;;;;5.34;85.13;102093.19;5016046;28;20572;-77
2021/04/04 05:28:54;;;;;;;19.08;4.85;;;;;;;5.36;84.63;102088.72;4984417;28;20080;-76
2021/04/04 05:31:21;;;;;;;23.10;4.20;;;;;;;5.43;84.43;102098.28;4970620;28;20019;-76
2021/04/04 05:33:46;;;;;;;22.17;4.40;;;;;;;5.55;83.50;102098.06;4987051;28;20066;-77
2021/04/04 05:36:12;;;;;;;22.65;4.80;;;;;;;5.49;82.51;102095.50;4965801;28;20397;-77
2021/04/04 05:38:37;;;;;;;19.88;4.15;;;;;;;5.43;82.37;102094.78;4965642;28;20039;-76
2021/04/04 05:41:03;;;;;;;29.63;5.47;;;;;;;5.51;82.45;102098.13;4985200;28;20129;-77
2021/04/04 05:43:37;;;;;;;22.60;5.53;;;;;;;5.53;82.20;102086.56;4986987;28;20057;-76
2021/04/04 05:46:07;;;;;;;22.75;4.53;;;;;;;5.51;82.68;102083.03;4991599;28;20274;-76
2021/04/04 05:48:45;;;;;;;22.58;4.10;;;;;;;5.42;83.48;102093.03;4965494;28;20038;-77
2021/04/04 05:51:32;;;;;;;22.30;4.70;;;;;;;5.51;82.61;102091.03;5003711;28;20035;-77
2021/04/04 05:54:11;;;;;;;27.08;4.80;;;;;;;5.46;83.06;102100.03;4984352;28;20564;-77
2021/04/04 05:56:46;;;;;;;23.55;5.38;;;;;;;5.53;82.77;102096.31;4977710;28;20037;-76
2021/04/04 05:59:26;;;;;;;17.42;4.40;;;;;;;5.46;83.15;102100.91;4968380;28;20042;-76
2021/04/04 06:02:07;;;;;;;23.27;5.45;;;;;;;5.48;83.33;102098.22;4993587;28;20402;-76
2021/04/04 06:04:54;;;;;;;23.02;4.25;;;;;;;5.45;82.73;102099.16;5002988;28;20049;-76
2021/04/04 06:07:56;;;;;;;16.08;5.78;;;;;;;5.41;83.20;102096.59;4976089;28;20034;-76
2021/04/04 06:10:38;;;;;;;21.13;4.30;;;;;;;5.37;83.90;102095.75;4970649;28;20077;-76
2021/04/04 06:13:18;;;;;;;18.35;4.43;;;;;;;5.38;84.48;102094.84;4966555;28;20514;-76
2021/04/04 06:16:03;;;;;;;24.48;5.10;;;;;;;5.46;84.03;102092.91;4985924;28;20541;-76
2021/04/04 06:18:37;;;;;;;24.10;4.47;;;;;;;5.58;82.80;102090.00;4982120;28;20065;-76
2021/04/04 06:21:18;;;;;;;23.15;6.28;;;;;;;5.51;82.04;102083.03;5009905;28;20096;-76
2021/04/04 06:23:54;;;;;;;29.15;4.45;;;;;;;5.62;82.41;102083.69;4984770;28;20060;-77
2021/04/04 06:26:38;;;;;;;20.27;4.40;;;;;;;5.73;82.27;102098.56;4985317;28;20041;-76
2021/04/04 06:29:21;;;;;;;21.13;3.83;;;;;;;5.82;81.87;102087.69;4991084;28;20030;-76
2021/04/04 06:32:07;;;;;;;16.48;4.35;;;;;;;5.80;81.93;102084.19;4980256;28;20038;-76
2021/04/04 06:34:41;;;;;;;20.08;4.35;;;;;;;5.77;81.65;102081.59;4991485;28;20038;-77
2021/04/04 06:37:31;;;;;;;21.95;4.68;;;;;;;5.84;81.84;102088.53;4982096;28;20038;-76
2021/04/04 06:40:08;;;;;;;15.02;3.42;;;;;;;5.89;80.09;102086.66;4981161;28;20030;-76
2021/04/04 06:42:52;;;;;;;21.45;4.28;;;;;;;5.87;79.39;102085.78;4978403;28;20093;-77
2021/04/04 06:45:27;;;;;;;26.15;4.18;;;;;;;5.80;80.74;102081.53;5011415;28;20069;-76
2021/04/04 06:48:37;;;;;;;21.85;3.88;;;;;;;5.76;81.48;102087.81;4982775;28;20101;-77
2021/04/04 06:51:13;;;;;;;15.90;4.20;;;;;;;5.78;81.56;102091.34;4986335;28;20523;-76
2021/04/04 06:53:59;;;;;;;21.30;4.55;;;;;;;5.79;81.64;102085.97;4986062;28;20038;-77
2021/04/04 06:56:55;;;;;;;30.17;6.63;;;;;;;5.86;81.54;102094.72;4999279;28;20606;-76
2021/04/04 06:59:55;;;;;;;20.83;4.78;;;;;;;6.01;80.56;102094.38;5000841;28;20416;-76
2021/04/04 07:02:25;;;;;;;18.13;3.67;;;;;;;5.94;80.69;102092.75;5019306;28;20034;-76
2021/04/04 07:04:54;;;;;;;25.80;6.15;;;;;;;6.03;80.90;102104.09;4989318;28;20049;-77
2021/04/04 07:07:57;;;;;;;20.77;4.03;;;;;;;6.03;80.51;102098.78;5019858;28;20045;-76
2021/04/04 07:10:28;;;;;;;20.98;3.92;;;;;;;5.99;80.84;102106.84;5017345;28;20041;-77
2021/04/04 07:13:05;;;;;;;17.90;4.03;;;;;;;6.09;80.85;102092.41;4978771;28;20151;-77
2021/04/04 07:15:58;;;;;;;14.35;4.00;;;;;;;6.11;80.28;102101.22;5015312;28;20030;-77
2021/04/04 07:18:43;;;;;;;;;;;;;;;6.07;80.57;102104.88;4990495;28;20038;-77
2021/04/04 07:21:29;;;;;;;19.20;3.72;;;;;;;6.24;80.07;102108.03;5002365;28;19920;-77
2021/04/04 07:24:14;;;;;;;21.90;5.85;;;;;;;6.11;80.29;102090.56;5005306;28;20042;-77
2021/04/04 07:26:50;;;;;;;17.20;3.90;;;;;;;6.19;80.21;102101.06;5021419;28;20037;-77
2021/04/04 07:29:37;;;;;;;16.45;4.25;;;;;;;6.30;79.38;102102.53;4988873;28;20120;-77
2021/04/04 07:32:11;;;;;;;22.17;5.72;;;;;;;6.25;78.78;102093.78;5015060;28;20101;-77
2021/04/04 07:34:47;;;;;;;21.50;4.90;;;;;;;6.25;79.42;102093.78;4985157;28;20042;-77
2021/04/04 07:37:32;;;;;;;17.08;4.00;;;;;;;6.28;79.17;102100.84;4969220;28;20030;-76
2021/04/04 07:40:14;;;;;;;29.30;5.88;;;;;;;6.30;80.08;102094.53;4969808;28;20073;-77
2021/04/04 07:42:58;;;;;;;29.52;6.05;;;;;;;6.44;79.00;102089.75;4970450;28;20093;-77
2021/04/04 07:45:35;;;;;;;20.10;4.57;;;;;;;6.44;78.67;102081.75;5000943;28;20139;-76
2021/04/04 07:48:25;;;;;;;19.83;4.10;;;;;;;6.48;78.84;102088.75;5001065;28;20042;-77
2021/04/04 07:51:04;;;;;;;23.58;6.75;;;;;;;6.49;79.05;102082.50;4997583;28;20120;-77
2021/04/04 07:53:45;;;;;;;22.23;7.78;;;;;;;6.44;79.62;102089.75;4980561;28;20277;-77
2021/04/04 07:56:17;;;;;;;18.02;5.30;;;;;;;6.53;79.55;102079.78;5016774;28;20041;-77
2021/04/04 07:59:20;;;;;;;22.33;4.13;;;;;;;6.57;78.22;102078.75;4971834;28;20756;-77
2021/04/04 08:02:03;;;;;;;15.70;4.10;;;;;;;6.56;78.04;102087.66;4994851;28;20042;-77
2021/04/04 08:04:51;;;;;;;17.45;4.15;;;;;;;6.62;78.64;102082.19;4971966;28;20034;-76
2021/04/04 08:07:45;;;;;;;17.95;4.22;;;;;;;6.77;77.73;102085.34;4986243;28;20394;-77
2021/04/04 08:10:15;;;;;;;27.77;5.28;;;;;;;6.75;76.95;102094.28;4984167;28;20405;-77
2021/04/04 08:13:02;;;;;;;19.88;4.78;;;;;;;6.64;77.60;102085.69;4999320;28;20035;-77
2021/04/04 08:15:40;;;;;;;14.25;5.35;;;;;;;6.82;78.00;102095.88;4987906;28;20518;-76
2021/04/04 08:18:05;;;;;;;15.48;4.70;;;;;;;6.90;77.12;102097.44;4996490;28;20042;-76
2021/04/04 08:20:40;;;;;;;18.75;4.55;;;;;;;6.81;77.63;102089.66;4987069;28;20038;-77
2021/04/04 08:23:09;;;;;;;15.07;4.22;;;;;;;6.89;77.39;102089.47;4997282;28;20038;-76
2021/04/04 08:25:44;;;;;;;14.73;5.13;;;;;;;6.83;77.39;102094.97;5011986;28;20057;-77
2021/04/04 08:28:31;;;;;;;23.77;5.07;;;;;;;6.87;78.60;102096.63;5017882;28;20045;-77
2021/04/04 08:31:07;;;;;;;18.30;4.53;;;;;;;6.94;77.25;102087.53;4983132;28;20081;-77
2021/04/04 08:33:40;;;;;;;21.25;4.57;;;;;;;6.93;77.57;102088.44;4985613;28;20046;-77
2021/04/04 08:36:07;;;;;;;;;;;;;;;6.99;76.89;102093.63;4969134;28;20058;-76
2021/04/04 08:38:41;;;;;;;29.58;5.57;;;;;;;6.94;76.78;102087.53;4983775;28;20108;-77
2021/04/04 08:41:09;;;;;;;21.35;4.40;;;;;;;6.92;77.67;102092.03;4969616;28;20382;-77
2021/04/04 08:43:38;;;;;;;22.88;4.50;;;;;;;7.15;76.59;102100.31;4971049;28;20045;-77
2021/04/04 08:46:28;;;;;;;15.48;4.88;;;;;;;7.12;76.52;102094.16;5005334;28;20030;-77
2021/04/04 08:48:55;;;;;;;17.80;4.75;;;;;;;7.14;76.38;102097.66;4986292;28;20037;-77
2021/04/04 08:51:27;;;;;;;18.38;5.40;;;;;;;7.03;76.46;102099.75;4980471;28;20162;-77
2021/04/04 08:53:53;;;;;;;16.58;4.38;;;;;;;6.89;77.03;102094.78;4986957;28;20386;-77
2021/04/04 08:56:22;;;;;;;16.08;4.53;;;;;;;6.85;78.92;102106.50;4965587;28;20034;-77
2021/04/04 08:58:54;;;;;;;18.58;4.50;;;;;;;6.98;78.08;102099.00;4997949;28;20042;-77
2021/04/04 09:01:32;;;;;;;13.27;4.93;;;;;;;6.99;77.29;102096.28;4997297;28;20076;-77
2021/04/04 09:04:04;;;;;;;17.15;5.03;;;;;;;7.03;77.47;102095.31;5000576;28;20511;-77
2021/04/04 09:06:44;;;;;;;16.02;4.75;;;;;;;7.08;77.68;102093.38;4984735;28;20031;-77
2021/04/04 09:09:20;;;;;;;20.52;5.18;;;;;;;7.27;76.38;102094.59;4986113;28;20038;-77
2021/04/04 09:11:49;;;;;;;10.52;3.80;;;;;;;7.45;75.97;102106.56;5014965;28;20045;-77
2021/04/04 09:14:19;;;;;;;14.32;3.72;;;;;;;7.37;76.51;102091.66;5013944;28;20038;-77
2021/04/04 09:16:51;;;;;;;10.63;3.35;;;;;;;7.45;74.90;102086.97;5013212;28;20042;-77
2021/04/04 09:19:28;;;;;;;11.30;3.20;;;;;;;7.33;74.57;102088.22;4985081;28;20039;-77
2021/04/04 09:21:55;;;;;;;14.82;3.95;;;;;;;7.34;75.56;102094.44;4981590;28;20113;-77
2021/04/04 09:24:21;;;;;;;14.15;3.65;;;;;;;7.22;76.38;102093.84;5000666;28;20478;-77
2021/04/04 09:26:46;;;;;;;18.30;4.10;;;;;;;7.37;74.65;102089.88;4979632;28;20019;-77
2021/04/04 09:29:12;;;;;;;14.07;4.22;;;;;;;7.32;74.62;102097.16;4967479;28;20034;-76
2021/04/04 09:31:40;;;;;;;20.08;3.67;;;;;;;7.37;74.48;102097.88;4980192;28;20437;-77
2021/04/04 09:34:09;;;;;;;8.73;3.25;;;;;;;7.43;74.08;102088.81;4979618;28;20511;-77
2021/04/04 09:36:39;;;;;;;15.02;6.07;;;;;;;7.38;74.21;102086.28;4974772;28;20105;-77
2021/04/04 09:39:05;;;;;;;37.20;21.27;;;;;;;7.50;73.57;102082.38;5001190;28;20038;-76
2021/04/04 09:41:32;;;;;;;69.68;29.60;;;;;;;7.54;73.30;102081.34;4981319;28;20038;-77
2021/04/04 09:44:04;;;;;;;21.25;8.43;;;;;;;7.59;74.02;102084.78;4984344;28;20133;-77
2021/04/04 09:46:30;;;;;;;23.60;6.30;;;;;;;7.58;73.07;102088.38;4989537;28;20033;-76
2021/04/04 09:48:55;;;;;;;14.90;5.47;;;;;;;7.50;72.92;102085.03;4985855;28;20042;-76
2021/04/04 09:51:21;;;;;;;16.42;4.30;;;;;;;7.51;73.42;102081.44;5012221;28;20096;-76
2021/04/04 09:53:48;;;;;;;11.80;3.72;;;;;;;7.67;73.62;102080.06;4987158;28;20451;-77
2021/04/04 09:56:19;;;;;;;11.85;4.30;;;;;;;7.78;73.33;102080.59;4987493;28;20074;-77
2021/04/04 09:58:45;;;;;;;16.85;3.65;;;;;;;7.74;73.62;102084.28;4996006;28;20046;-77
2021/04/04 10:01:13;;;;;;;12.07;3.47;;;;;;;7.68;73.57;102084.47;4982022;28;20050;-77
2021/04/04 10:03:39;;;;;;;13.50;3.30;;;;;;;7.87;72.19;102072.28;4979768;28;20031;-77
2021/04/04 10:06:11;;;;;;;23.85;4.05;;;;;;;7.90;71.83;102082.03;5001074;28;20042;-77
2021/04/04 10:08:36;;;;;;;14.50;3.58;;;;;;;7.84;71.70;102072.38;4961986;28;20029;-77
2021/04/04 10:11:14;;;;;;;17.80;4.18;;;;;;;7.93;71.46;102074.78;4987706;28;20038;-76
2021/04/04 10:13:40;;;;;;;14.38;4.13;;;;;;;7.95;71.96;102064.91;4984817;28;20454;-77
2021/04/04 10:16:17;;;;;;;21.70;3.97;;;;;;;8.03;72.13;102064.66;4967283;28;20058;-77
2021/04/04 10:19:08;;;;;;;17.05;3.92;;;;;;;8.12;70.58;102059.00;4989098;28;20092;-76
2021/04/04 10:21:38;;;;;;;16.42;3.55;;;;;;;8.11;70.39;102055.47;4991197;28;20084;-76
2021/04/04 10:24:30;;;;;;;12.98;3.50;;;;;;;8.13;69.51;102055.41;5005058;28;20035;-76
2021/04/04 10:27:19;;;;;;;11.88;3.28;;;;;;;8.24;69.86;102052.38;4982174;28;20041;-77
2021/04/04 10:29:47;;;;;;;8.68;3.00;;;;;;;8.26;69.97;102053.22;4984725;28;20034;-76
2021/04/04 10:32:13;;;;;;;10.02;3.17;;;;;;;8.38;68.81;102051.03;4985264;28;20416;-77
2021/04/04 10:34:43;;;;;;;10.48;3.03;;;;;;;8.33;68.63;102038.75;4978706;28;20038;-76
2021/04/04 10:37:09;;;;;;;19.80;4.05;;;;;;;8.22;68.39;102047.06;4976547;28;20045;-76
2021/04/04 10:39:36;;;;;;;13.85;3.10;;;;;;;8.29;68.01;102045.94;4980970;28;21056;-76
2021/04/04 10:42:15;;;;;;;16.17;2.88;;;;;;;8.35;68.43;102050.25;4963676;28;20132;-76
2021/04/04 10:44:41;;;;;;;14.30;3.78;;;;;;;8.38;67.63;102042.13;4978479;28;20425;-76
2021/04/04 10:47:19;;;;;;;9.13;3.30;;;;;;;8.24;68.84;102037.22;5009707;28;20030;-76
2021/04/04 10:49:45;;;;;;;8.50;2.40;;;;;;;8.54;68.15;102029.97;4978945;28;20401;-76
2021/04/04 10:52:12;;;;;;;11.82;3.13;;;;;;;8.53;67.68;102025.53;4990053;28;20041;-76
2021/04/04 10:54:38;;;;;;;9.65;3.03;;;;;;;8.52;67.37;102027.31;4985452;28;20048;-77
2021/04/04 10:57:05;;;;;;;16.15;4.35;;;;;;;8.64;67.40;102026.00;4963678;28;20037;-76
2021/04/04 10:59:32;;;;;;;17.05;3.75;;;;;;;8.61;67.40;102020.78;4965591;28;20463;-77
2021/04/04 11:01:57;;;;;;;13.40;2.95;;;;;;;8.61;66.08;102017.25;4971360;28;20034;-76
2021/04/04 11:04:24;;;;;;;9.02;2.88;;;;;;;8.59;66.48;102011.06;4963192;28;20161;-76
2021/04/04 11:06:50;;;;;;;10.05;2.90;;;;;;;8.58;67.86;102014.69;4977055;28;20519;-77
2021/04/04 11:09:15;;;;;;;11.13;3.22;;;;;;;8.60;68.73;102002.97;4988883;28;20039;-76
2021/04/04 11:11:42;;;;;;;14.45;3.60;;;;;;;8.77;66.56;102000.56;4973361;28;20039;-76
2021/04/04 11:14:10;;;;;;;7.30;2.90;;;;;;;8.79;65.53;101998.72;5002982;28;20038;-77
2021/04/04 11:16:36;;;;;;;17.70;3.30;;;;;;;8.84;67.72;102001.22;4978728;28;20038;-76
2021/04/04 11:19:07;;;;;;;11.88;3.50;;;;;;;8.87;67.53;101993.97;5011702;28;20126;-77
2021/04/04 11:21:44;;;;;;;18.10;5.45;;;;;;;8.89;66.53;101988.53;4961414;28;20049;-76
2021/04/04 11:24:16;;;;;;;13.13;3.50;;;;;;;8.99;66.24;101989.06;4963304;28;20130;-77
2021/04/04 11:26:59;;;;;;;16.33;3.55;;;;;;;8.99;66.21;101978.34;4970517;28;20416;-76
2021/04/04 11:29:26;;;;;;;;;;;;;;;8.90;65.84;101972.41;4994524;28;20451;-76
2021/04/04 11:31:54;;;;;;;11.32;3.10;;;;;;;8.94;66.24;101970.50;5011435;28;19922;-77
2021/04/04 11:34:40;;;;;;;8.98;3.75;;;;;;;8.97;66.19;101958.78;5001974;28;20034;-77
2021/04/04 11:37:11;;;;;;;19.40;5.60;;;;;;;9.01;67.52;101971.16;4980076;28;20049;-76
2021/04/04 11:39:38;;;;;;;12.57;4.03;;;;;;;9.13;67.08;101970.69;4988314;28;20133;-76
2021/04/04 11:42:05;;;;;;;14.73;4.78;;;;;;;9.21;67.11;101969.44;4994415;28;20034;-77
2021/04/04 11:44:37;;;;;;;21.42;4.78;;;;;;;9.31;66.79;101959.25;4997516;28;20034;-76
2021/04/04 11:47:15;;;;;;;13.48;4.40;;;;;;;9.21;65.13;101957.84;4969373;28;20667;-76